createdAt,value
2024-01-12T00:01:47.938Z,98124.15
2024-01-12T00:04:16.773Z,98122.10
2024-01-12T00:06:47.349Z,98125.34
2024-01-12T00:09:16.020Z,98118.44
2024-01-12T00:11:44.465Z,98117.14
2024-01-12T00:14:17.178Z,98114.46
2024-01-12T00:16:49.267Z,98113.74
2024-01-12T00:19:19.027Z,98115.95
2024-01-12T00:21:48.029Z,98121.20
2024-01-12T00:24:16.054Z,98126.73
2024-01-12T00:26:44.205Z,98129.17
2024-01-12T00:29:12.358Z,98141.07
2024-01-12T00:31:40.555Z,98144.80
2024-01-12T00:34:08.638Z,98143.10
2024-01-12T00:36:36.646Z,98136.10
2024-01-12T00:39:05.380Z,98140.09
2024-01-12T00:41:33.538Z,98146.17
2024-01-12T00:44:02.794Z,98150.42
2024-01-12T00:46:30.960Z,98146.69
2024-01-12T00:48:59.551Z,98151.73
2024-01-12T00:51:27.919Z,98144.91
2024-01-12T00:53:56.372Z,98146.00
2024-01-12T00:56:25.416Z,98146.34
2024-01-12T00:58:53.507Z,98147.90
2024-01-12T01:01:22.185Z,98149.84
2024-01-12T01:03:50.393Z,98145.26
2024-01-12T01:06:18.716Z,98145.36
2024-01-12T01:08:49.399Z,98132.83
2024-01-12T01:11:17.552Z,98138.59
2024-01-12T01:13:45.604Z,98134.00
2024-01-12T01:16:13.688Z,98135.42
2024-01-12T01:18:41.972Z,98141.56
2024-01-12T01:21:10.478Z,98140.73
2024-01-12T01:23:38.524Z,98136.82
2024-01-12T01:26:06.625Z,98140.23
2024-01-12T01:28:34.831Z,98144.58
2024-01-12T01:31:03.350Z,98141.30
2024-01-12T01:33:31.508Z,98139.57
2024-01-12T01:35:59.762Z,98141.27
2024-01-12T01:38:27.868Z,98136.86
2024-01-12T01:40:56.092Z,98144.77
2024-01-12T01:43:24.281Z,98143.80
2024-01-12T01:45:53.260Z,98137.91
2024-01-12T01:48:21.380Z,98132.29
2024-01-12T01:50:49.714Z,98131.30
2024-01-12T01:53:18.072Z,98134.27
2024-01-12T01:55:46.298Z,98132.59
2024-01-12T01:58:15.040Z,98132.23
2024-01-12T02:00:44.969Z,98131.68
2024-01-12T02:03:13.151Z,98126.81
2024-01-12T02:05:44.045Z,98123.45
2024-01-12T02:08:12.165Z,98122.73
2024-01-12T02:10:40.545Z,98121.74
2024-01-12T02:13:08.731Z,98115.02
2024-01-12T02:15:36.765Z,98107.13
2024-01-12T02:18:05.375Z,98107.67
2024-01-12T02:20:33.811Z,98101.80
2024-01-12T02:23:01.880Z,98097.38
2024-01-12T02:25:30.032Z,98104.88
2024-01-12T02:27:58.417Z,98103.98
2024-01-12T02:30:26.771Z,98098.14
2024-01-12T02:32:55.170Z,98101.31
2024-01-12T02:35:23.590Z,98102.24
2024-01-12T02:37:51.723Z,98100.98
2024-01-12T02:40:19.817Z,98100.56
2024-01-12T02:42:48.241Z,98094.75
2024-01-12T02:45:16.331Z,98095.98
2024-01-12T02:47:45.122Z,98101.04
2024-01-12T02:50:14.148Z,98104.09
2024-01-12T02:52:42.438Z,98100.91
2024-01-12T02:55:10.505Z,98100.98
2024-01-12T02:57:38.590Z,98100.30
2024-01-12T03:00:08.387Z,98099.42
2024-01-12T03:02:37.513Z,98099.25
2024-01-12T03:05:06.932Z,98094.73
2024-01-12T03:07:35.402Z,98096.27
2024-01-12T03:10:03.544Z,98093.72
2024-01-12T03:12:31.525Z,98094.79
2024-01-12T03:14:59.776Z,98093.30
2024-01-12T03:17:28.007Z,98095.80
2024-01-12T03:19:56.330Z,98097.84
2024-01-12T03:22:24.512Z,98102.48
2024-01-12T03:24:52.547Z,98109.04
2024-01-12T03:27:20.560Z,98115.02
2024-01-12T03:29:48.678Z,98115.93
2024-01-12T03:32:17.006Z,98118.98
2024-01-12T03:34:45.171Z,98121.33
2024-01-12T03:37:13.641Z,98124.00
2024-01-12T03:39:41.925Z,98114.25
2024-01-12T03:42:09.998Z,98114.84
2024-01-12T03:44:38.123Z,98112.52
2024-01-12T03:47:06.574Z,98113.34
2024-01-12T03:49:34.822Z,98111.18
2024-01-12T03:52:14.890Z,98119.20
2024-01-12T03:54:44.550Z,98114.57
2024-01-12T03:57:12.776Z,98116.17
2024-01-12T03:59:42.122Z,98115.17
2024-01-12T04:02:10.315Z,98119.15
2024-01-12T04:04:38.467Z,98116.28
2024-01-12T04:07:06.596Z,98123.27
2024-01-12T04:09:34.679Z,98121.71
2024-01-12T04:12:03.920Z,98121.85
2024-01-12T04:14:35.347Z,98120.21
2024-01-12T04:17:05.939Z,98123.13
2024-01-12T04:19:34.241Z,98129.17
2024-01-12T04:22:02.266Z,98131.13
2024-01-12T04:24:30.409Z,98132.15
2024-01-12T04:26:58.568Z,98123.62
2024-01-12T04:29:26.661Z,98120.49
2024-01-12T04:31:54.884Z,98127.34
2024-01-12T04:34:22.996Z,98123.92
2024-01-12T04:36:51.121Z,98120.41
2024-01-12T04:39:19.452Z,98117.95
2024-01-12T04:41:47.756Z,98116.21
2024-01-12T04:44:16.046Z,98121.33
2024-01-12T04:46:45.002Z,98118.09
2024-01-12T04:49:13.229Z,98118.32
2024-01-12T04:51:41.470Z,98118.45
2024-01-12T04:54:09.595Z,98125.43
2024-01-12T04:56:37.669Z,98124.22
2024-01-12T04:59:05.826Z,98130.63
2024-01-12T05:01:34.021Z,98135.83
2024-01-12T05:04:02.102Z,98136.46
2024-01-12T05:06:30.548Z,98138.98
2024-01-12T05:09:01.540Z,98143.33
2024-01-12T05:11:30.169Z,98147.11
2024-01-12T05:13:58.321Z,98153.55
2024-01-12T05:16:26.688Z,98158.11
2024-01-12T05:18:54.969Z,98160.16
2024-01-12T05:21:23.694Z,98164.85
2024-01-12T05:23:51.826Z,98173.17
2024-01-12T05:26:20.310Z,98176.69
2024-01-12T05:28:48.390Z,98178.27
2024-01-12T05:31:16.587Z,98184.90
2024-01-12T05:33:44.873Z,98182.94
2024-01-12T05:36:13.186Z,98187.52
2024-01-12T05:38:41.535Z,98182.25
2024-01-12T05:41:09.602Z,98185.95
2024-01-12T05:43:37.638Z,98190.81
2024-01-12T05:46:06.391Z,98186.95
2024-01-12T05:48:35.653Z,98185.80
2024-01-12T05:51:04.353Z,98187.02
2024-01-12T05:53:32.527Z,98195.08
2024-01-12T05:56:00.662Z,98200.04
2024-01-12T05:58:28.755Z,98205.74
2024-01-12T06:00:56.978Z,98206.82
2024-01-12T06:03:25.659Z,98213.02
2024-01-12T06:05:54.045Z,98220.21
2024-01-12T06:08:22.375Z,98221.61
2024-01-12T06:10:51.877Z,98223.86
2024-01-12T06:13:20.028Z,98223.66
2024-01-12T06:15:48.065Z,98223.73
2024-01-12T06:18:16.236Z,98224.76
2024-01-12T06:20:44.608Z,98222.92
2024-01-12T06:23:12.772Z,98219.14
2024-01-12T06:25:40.968Z,98231.73
2024-01-12T06:28:09.116Z,98241.72
2024-01-12T06:30:37.557Z,98246.14
2024-01-12T06:33:06.697Z,98254.63
2024-01-12T06:35:35.062Z,98258.53
2024-01-12T06:38:03.473Z,98259.03
2024-01-12T06:40:32.758Z,98264.77
2024-01-12T06:43:01.053Z,98268.02
2024-01-12T06:45:29.091Z,98271.77
2024-01-12T06:47:57.278Z,98276.20
2024-01-12T06:50:25.495Z,98276.34
2024-01-12T06:52:53.657Z,98278.20
2024-01-12T06:55:21.813Z,98275.71
2024-01-12T06:57:49.844Z,98280.06
2024-01-12T07:00:18.428Z,98284.11
2024-01-12T07:02:47.507Z,98283.23
2024-01-12T07:05:15.811Z,98286.85
2024-01-12T07:07:44.604Z,98283.00
2024-01-12T07:10:12.660Z,98286.45
2024-01-12T07:12:40.704Z,98290.92
2024-01-12T07:15:10.339Z,98284.67
2024-01-12T07:17:38.517Z,98282.82
2024-01-12T07:20:07.671Z,98284.86
2024-01-12T07:22:35.907Z,98285.83
2024-01-12T07:25:04.426Z,98283.92
2024-01-12T07:27:32.910Z,98289.72
2024-01-12T07:30:01.313Z,98290.89
2024-01-12T07:32:29.565Z,98293.05
2024-01-12T07:34:57.900Z,98300.86
2024-01-12T07:37:26.019Z,98306.70
2024-01-12T07:39:54.179Z,98309.45
2024-01-12T07:42:22.321Z,98317.46
2024-01-12T07:44:51.262Z,98321.34
2024-01-12T07:47:19.377Z,98325.73
2024-01-12T07:49:47.535Z,98330.20
2024-01-12T07:52:19.187Z,98332.46
2024-01-12T07:54:49.179Z,98331.42
2024-01-12T07:57:17.303Z,98326.41
2024-01-12T07:59:45.475Z,98328.98
2024-01-12T08:02:13.563Z,98327.02
2024-01-12T08:04:41.657Z,98328.21
2024-01-12T08:07:09.878Z,98335.48
2024-01-12T08:09:38.668Z,98339.09
2024-01-12T08:12:07.295Z,98345.05
2024-01-12T08:14:35.495Z,98349.19
2024-01-12T08:17:03.980Z,98355.91
2024-01-12T08:19:32.334Z,98350.81
2024-01-12T08:22:02.923Z,98349.09
2024-01-12T08:24:33.016Z,98356.17
2024-01-12T08:27:01.175Z,98355.36
2024-01-12T08:29:29.579Z,98361.86
2024-01-12T08:32:00.035Z,98361.73
2024-01-12T08:34:29.098Z,98361.52
2024-01-12T08:36:59.573Z,98365.14
2024-01-12T08:39:28.083Z,98366.06
2024-01-12T08:41:56.144Z,98373.48
2024-01-12T08:44:24.460Z,98375.40
2024-01-12T08:46:55.579Z,98381.60
2024-01-12T08:49:23.941Z,98382.00
2024-01-12T08:51:52.773Z,98377.46
2024-01-12T08:54:21.006Z,98380.48
2024-01-12T08:56:49.178Z,98386.37
2024-01-12T08:59:17.286Z,98390.05
2024-01-12T09:01:45.487Z,98395.23
2024-01-12T09:04:13.833Z,98394.88
2024-01-12T09:06:42.158Z,98396.92
2024-01-12T09:09:10.608Z,98398.91
2024-01-12T09:11:38.918Z,98400.16
2024-01-12T09:14:09.481Z,98398.43
2024-01-12T09:16:38.557Z,98403.27
2024-01-12T09:19:08.145Z,98406.02
2024-01-12T09:21:36.403Z,98403.45
2024-01-12T09:24:04.788Z,98404.27
2024-01-12T09:26:33.048Z,98404.38
2024-01-12T09:29:01.186Z,98408.46
2024-01-12T09:31:29.384Z,98403.64
2024-01-12T09:33:58.333Z,98399.78
2024-01-12T09:36:26.538Z,98405.10
2024-01-12T09:38:55.915Z,98400.08
2024-01-12T09:41:37.806Z,98395.80
2024-01-12T09:44:09.241Z,98386.10
2024-01-12T09:47:01.832Z,98381.89
2024-01-12T09:49:32.369Z,98383.81
2024-01-12T09:52:03.177Z,98382.42
2024-01-12T09:54:31.348Z,98381.55
2024-01-12T09:57:00.571Z,98377.38
2024-01-12T09:59:29.793Z,98373.48
2024-01-12T10:01:58.974Z,98375.35
2024-01-12T10:04:28.305Z,98376.27
2024-01-12T10:06:56.875Z,98378.75
2024-01-12T10:09:26.555Z,98378.46
2024-01-12T10:11:55.788Z,98376.99
2024-01-12T10:14:26.726Z,98373.95
2024-01-12T10:16:59.668Z,98378.23
2024-01-12T10:19:28.150Z,98371.48
2024-01-12T10:21:57.072Z,98374.91
2024-01-12T10:24:25.234Z,98367.27
2024-01-12T10:26:53.934Z,98367.30
2024-01-12T10:29:22.455Z,98369.33
2024-01-12T10:31:50.951Z,98365.80
2024-01-12T10:34:22.025Z,98364.48
2024-01-12T10:36:52.559Z,98363.64
2024-01-12T10:39:23.351Z,98360.81
2024-01-12T10:41:53.464Z,98361.52
2024-01-12T10:44:23.797Z,98358.75
2024-01-12T10:46:57.812Z,98357.62
2024-01-12T10:49:28.716Z,98359.32
2024-01-12T10:52:20.861Z,98359.36
2024-01-12T10:54:52.842Z,98359.22
2024-01-12T10:57:23.233Z,98360.42
2024-01-12T10:59:51.548Z,98360.29
2024-01-12T11:02:20.690Z,98358.15
2024-01-12T11:04:50.072Z,98365.66
2024-01-12T11:07:19.657Z,98365.52
2024-01-12T11:09:47.833Z,98366.58
2024-01-12T11:12:33.459Z,98368.05
2024-01-12T11:15:02.499Z,98365.60
2024-01-12T11:17:32.696Z,98363.04
2024-01-12T11:20:21.766Z,98368.42
2024-01-12T11:22:51.271Z,98372.15
2024-01-12T11:25:20.625Z,98366.33
2024-01-12T11:27:51.160Z,98367.67
2024-01-12T11:30:21.580Z,98366.35
2024-01-12T11:33:02.306Z,98367.36
2024-01-12T11:35:32.263Z,98364.80
2024-01-12T11:38:01.697Z,98366.83
2024-01-12T11:40:30.176Z,98365.21
2024-01-12T11:43:00.660Z,98364.42
2024-01-12T11:45:29.831Z,98365.06
2024-01-12T11:47:58.119Z,98365.98
2024-01-12T11:50:28.678Z,98370.70
2024-01-12T11:52:58.817Z,98369.03
2024-01-12T11:55:27.771Z,98361.98
2024-01-12T11:57:56.696Z,98360.80
2024-01-12T12:00:25.290Z,98357.86
2024-01-12T12:02:57.100Z,98359.47
2024-01-12T12:05:27.530Z,98359.15
2024-01-12T12:07:55.841Z,98352.84
2024-01-12T12:10:33.335Z,98355.34
2024-01-12T12:13:12.328Z,98350.58
2024-01-12T12:15:40.460Z,98351.64
2024-01-12T12:18:09.078Z,98345.14
2024-01-12T12:20:37.882Z,98347.34
2024-01-12T12:23:08.537Z,98349.64
2024-01-12T12:25:36.928Z,98346.81
2024-01-12T12:28:05.971Z,98344.09
2024-01-12T12:30:34.217Z,98339.17
2024-01-12T12:33:02.572Z,98342.61
2024-01-12T12:35:30.853Z,98337.15
2024-01-12T12:38:02.680Z,98341.73
2024-01-12T12:40:34.257Z,98338.73
2024-01-12T12:43:03.738Z,98345.95
2024-01-12T12:45:31.941Z,98345.92
2024-01-12T12:48:00.656Z,98350.48
2024-01-12T12:50:30.810Z,98350.92
2024-01-12T12:52:59.013Z,98349.58
2024-01-12T12:55:27.188Z,98349.52
2024-01-12T12:57:55.227Z,98350.84
2024-01-12T13:00:23.378Z,98350.69
2024-01-12T13:02:51.763Z,98347.58
2024-01-12T13:05:22.988Z,98349.42
2024-01-12T13:07:51.517Z,98351.91
2024-01-12T13:10:19.933Z,98360.60
2024-01-12T13:12:48.185Z,98354.03
2024-01-12T13:15:16.469Z,98352.14
2024-01-12T13:17:44.992Z,98353.42
2024-01-12T13:20:14.482Z,98355.33
2024-01-12T13:22:42.773Z,98353.52
2024-01-12T13:25:12.549Z,98358.74
2024-01-12T13:27:40.613Z,98365.48
2024-01-12T13:30:12.286Z,98368.77
2024-01-12T13:32:40.688Z,98373.08
2024-01-12T13:35:09.831Z,98375.28
2024-01-12T13:37:38.376Z,98368.23
2024-01-12T13:40:07.424Z,98372.17
2024-01-12T13:42:35.518Z,98373.71
2024-01-12T13:45:04.094Z,98372.89
2024-01-12T13:47:32.912Z,98373.32
2024-01-12T13:50:01.266Z,98372.33
2024-01-12T13:52:29.812Z,98378.73
2024-01-12T13:54:57.919Z,98383.75
2024-01-12T13:57:25.926Z,98387.52
2024-01-12T13:59:54.190Z,98384.24
2024-01-12T14:02:22.436Z,98380.59
2024-01-12T14:05:00.953Z,98385.11
2024-01-12T14:07:40.238Z,98382.58
2024-01-12T14:10:09.409Z,98384.06
2024-01-12T14:12:38.559Z,98390.20
2024-01-12T14:15:08.335Z,98393.36
2024-01-12T14:17:36.550Z,98398.58
2024-01-12T14:20:05.456Z,98398.14
2024-01-12T14:22:34.106Z,98393.02
2024-01-12T14:25:02.288Z,98399.95
2024-01-12T14:27:30.447Z,98401.63
2024-01-12T14:29:59.253Z,98401.66
2024-01-12T14:32:27.982Z,98399.16
2024-01-12T14:34:56.288Z,98404.21
2024-01-12T14:37:24.603Z,98402.88
2024-01-12T14:39:52.797Z,98398.16
2024-01-12T14:42:20.982Z,98396.77
2024-01-12T14:44:49.159Z,98396.05
2024-01-12T14:47:20.821Z,98396.62
2024-01-12T14:49:50.622Z,98397.50
2024-01-12T14:52:19.018Z,98391.63
2024-01-12T14:54:48.477Z,98394.31
2024-01-12T14:57:16.848Z,98396.54
2024-01-12T14:59:45.266Z,98396.37
2024-01-12T15:02:13.377Z,98398.35
2024-01-12T15:04:43.557Z,98401.71
2024-01-12T15:07:12.040Z,98401.21
2024-01-12T15:09:40.290Z,98405.27
2024-01-12T15:12:08.560Z,98406.14
2024-01-12T15:14:36.737Z,98403.21
2024-01-12T15:17:05.034Z,98406.81
2024-01-12T15:19:33.453Z,98408.21
2024-01-12T15:22:01.616Z,98411.98
2024-01-12T15:24:29.807Z,98421.91
2024-01-12T15:26:57.956Z,98426.88
2024-01-12T15:29:26.150Z,98434.97
2024-01-12T15:31:54.241Z,98433.44
2024-01-12T15:34:22.478Z,98430.93
2024-01-12T15:36:50.730Z,98435.29
2024-01-12T15:39:18.775Z,98434.98
2024-01-12T15:41:46.929Z,98436.98
2024-01-12T15:44:15.037Z,98438.96
2024-01-12T15:46:43.095Z,98442.11
2024-01-12T15:49:12.364Z,98440.70
2024-01-12T15:51:41.473Z,98445.80
2024-01-12T15:54:09.526Z,98442.52
2024-01-12T15:56:37.690Z,98445.11
2024-01-12T15:59:05.740Z,98444.39
2024-01-12T16:01:33.842Z,98441.59
2024-01-12T16:04:01.984Z,98443.27
2024-01-12T16:06:30.448Z,98439.75
2024-01-12T16:08:58.753Z,98436.72
2024-01-12T16:11:27.099Z,98440.17
2024-01-12T16:13:55.462Z,98438.87
2024-01-12T16:16:23.670Z,98439.58
2024-01-12T16:19:00.026Z,98438.90
2024-01-12T16:21:35.201Z,98433.95
2024-01-12T16:24:04.148Z,98426.10
2024-01-12T16:26:39.416Z,98423.30
2024-01-12T16:29:08.561Z,98415.04
2024-01-12T16:31:37.296Z,98413.45
2024-01-12T16:34:08.682Z,98411.67
2024-01-12T16:36:36.791Z,98409.23
2024-01-12T16:39:04.927Z,98400.27
2024-01-12T16:41:33.112Z,98399.10
2024-01-12T16:44:01.242Z,98395.14
2024-01-12T16:46:29.269Z,98394.84
2024-01-12T16:48:57.535Z,98389.94
2024-01-12T16:51:25.754Z,98386.44
2024-01-12T16:53:53.864Z,98393.00
2024-01-12T16:56:22.259Z,98403.52
2024-01-12T16:58:51.107Z,98412.17
2024-01-12T17:01:22.113Z,98412.56
2024-01-12T17:03:51.128Z,98408.67
2024-01-12T17:06:19.388Z,98393.85
2024-01-12T17:08:47.489Z,98388.43
2024-01-12T17:11:15.594Z,98379.05
2024-01-12T17:13:44.777Z,98377.17
2024-01-12T17:16:12.959Z,98379.92
2024-01-12T17:18:41.764Z,98377.89
2024-01-12T17:21:10.855Z,98386.20
2024-01-12T17:23:39.554Z,98393.38
2024-01-12T17:26:11.009Z,98397.98
2024-01-12T17:28:39.575Z,98400.34
2024-01-12T17:31:07.756Z,98404.42
2024-01-12T17:33:36.131Z,98406.08
2024-01-12T17:36:07.702Z,98406.30
2024-01-12T17:38:35.858Z,98407.40
2024-01-12T17:41:06.988Z,98406.85
2024-01-12T17:43:35.032Z,98410.54
2024-01-12T17:46:03.632Z,98416.42
2024-01-12T17:48:34.364Z,98413.14
2024-01-12T17:51:02.673Z,98408.81
2024-01-12T17:53:30.802Z,98408.16
2024-01-12T17:55:58.903Z,98409.00
2024-01-12T17:58:27.044Z,98403.97
2024-01-12T18:00:55.155Z,98405.70
2024-01-12T18:03:23.290Z,98397.16
2024-01-12T18:05:51.473Z,98400.79
2024-01-12T18:08:19.698Z,98405.10
2024-01-12T18:10:47.717Z,98411.22
2024-01-12T18:13:15.817Z,98401.48
2024-01-12T18:15:44.229Z,98398.77
2024-01-12T18:18:12.491Z,98404.59
2024-01-12T18:20:40.841Z,98410.59
2024-01-12T18:23:09.229Z,98412.79
2024-01-12T18:25:37.386Z,98416.98
2024-01-12T18:28:05.526Z,98421.79
2024-01-12T18:30:33.850Z,98423.76
2024-01-12T18:33:02.142Z,98420.36
2024-01-12T18:35:30.325Z,98426.92
2024-01-12T18:37:58.531Z,98426.24
2024-01-12T18:40:26.849Z,98425.42
2024-01-12T18:42:54.889Z,98423.54
2024-01-12T18:45:22.995Z,98427.23
2024-01-12T18:47:51.119Z,98426.65
2024-01-12T18:50:19.408Z,98426.38
2024-01-12T18:52:47.479Z,98429.66
2024-01-12T18:55:15.638Z,98429.11
2024-01-12T18:57:43.714Z,98430.27
2024-01-12T19:00:12.834Z,98433.10
2024-01-12T19:02:40.974Z,98435.55
2024-01-12T19:05:09.196Z,98436.99
2024-01-12T19:07:37.353Z,98435.20
2024-01-12T19:10:06.010Z,98436.06
2024-01-12T19:12:34.129Z,98444.70
2024-01-12T19:15:02.511Z,98444.55
2024-01-12T19:17:30.667Z,98444.35
2024-01-12T19:19:59.616Z,98441.64
2024-01-12T19:22:27.716Z,98438.42
2024-01-12T19:24:56.980Z,98432.73
2024-01-12T19:27:25.296Z,98432.73
2024-01-12T19:29:53.496Z,98432.30
2024-01-12T19:32:21.657Z,98428.23
2024-01-12T19:34:51.260Z,98423.95
2024-01-12T19:37:19.489Z,98420.95
2024-01-12T19:39:47.501Z,98419.35
2024-01-12T19:42:16.969Z,98420.67
2024-01-12T19:44:45.799Z,98417.08
2024-01-12T19:47:13.970Z,98413.42
2024-01-12T19:49:42.951Z,98418.42
2024-01-12T19:52:11.002Z,98418.30
2024-01-12T19:54:39.371Z,98416.05
2024-01-12T19:57:07.629Z,98414.73
2024-01-12T19:59:35.917Z,98417.22
2024-01-12T20:02:04.323Z,98418.30
2024-01-12T20:04:41.080Z,98418.98
2024-01-12T20:07:14.983Z,98421.55
2024-01-12T20:09:43.108Z,98419.31
2024-01-12T20:12:11.349Z,98420.77
2024-01-12T20:14:39.580Z,98417.42
2024-01-12T20:17:07.869Z,98420.96
2024-01-12T20:19:36.071Z,98423.33
2024-01-12T20:22:04.494Z,98424.75
2024-01-12T20:24:32.583Z,98426.14
2024-01-12T20:27:00.913Z,98425.79
2024-01-12T20:29:29.019Z,98427.51
2024-01-12T20:31:57.084Z,98427.51
2024-01-12T20:34:25.347Z,98429.19
2024-01-12T20:36:53.688Z,98429.51
2024-01-12T20:39:22.147Z,98432.09
2024-01-12T20:41:50.261Z,98433.79
2024-01-12T20:44:18.480Z,98432.94
2024-01-12T20:46:48.613Z,98431.60
2024-01-12T20:49:16.788Z,98431.40
2024-01-12T20:51:44.963Z,98429.63
2024-01-12T20:54:13.214Z,98426.09
2024-01-12T20:56:44.053Z,98424.33
2024-01-12T20:59:12.146Z,98429.10
2024-01-12T21:01:40.201Z,98429.58
2024-01-12T21:04:08.537Z,98439.38
2024-01-12T21:06:36.756Z,98443.63
2024-01-12T21:09:04.935Z,98441.83
2024-01-12T21:11:32.974Z,98440.77
2024-01-12T21:14:02.210Z,98435.77
2024-01-12T21:16:30.184Z,98439.23
2024-01-12T21:18:58.314Z,98443.20
2024-01-12T21:21:26.610Z,98442.31
2024-01-12T21:23:54.958Z,98443.97
2024-01-12T21:26:23.737Z,98446.10
2024-01-12T21:28:51.926Z,98445.77
2024-01-12T21:31:20.178Z,98449.33
2024-01-12T21:33:48.551Z,98450.72
2024-01-12T21:36:16.899Z,98449.41
2024-01-12T21:38:45.056Z,98445.24
2024-01-12T21:41:13.375Z,98440.34
2024-01-12T21:43:41.383Z,98441.70
2024-01-12T21:46:10.747Z,98439.83
2024-01-12T21:48:38.976Z,98435.33
2024-01-12T21:51:07.640Z,98426.86
2024-01-12T21:53:35.841Z,98421.15
2024-01-12T21:56:04.130Z,98423.20
2024-01-12T21:58:32.155Z,98427.44
2024-01-12T22:01:00.284Z,98425.37
2024-01-12T22:03:28.574Z,98421.56
2024-01-12T22:05:56.896Z,98413.52
2024-01-12T22:08:25.236Z,98412.62
2024-01-12T22:10:53.293Z,98416.02
2024-01-12T22:13:21.381Z,98405.98
2024-01-12T22:15:50.228Z,98409.89
2024-01-12T22:18:18.478Z,98401.98
2024-01-12T22:20:46.736Z,98403.36
2024-01-12T22:23:14.825Z,98409.45
2024-01-12T22:25:43.861Z,98413.42
2024-01-12T22:28:12.146Z,98414.29
2024-01-12T22:30:40.341Z,98412.20
2024-01-12T22:33:08.437Z,98407.39
2024-01-12T22:35:37.206Z,98407.79
2024-01-12T22:38:06.138Z,98411.13
2024-01-12T22:40:34.221Z,98410.40
2024-01-12T22:43:02.341Z,98422.48
2024-01-12T22:45:30.490Z,98424.41
2024-01-12T22:47:58.757Z,98425.03
2024-01-12T22:50:28.058Z,98425.09
2024-01-12T22:52:57.774Z,98427.95
2024-01-12T22:55:28.278Z,98435.64
2024-01-12T22:57:56.595Z,98437.39
2024-01-12T23:00:27.628Z,98445.13
2024-01-12T23:02:57.038Z,98444.60
2024-01-12T23:05:25.691Z,98448.08
2024-01-12T23:07:54.109Z,98451.31
2024-01-12T23:10:22.451Z,98446.56
2024-01-12T23:12:50.578Z,98445.54
2024-01-12T23:15:20.141Z,98436.91
2024-01-12T23:17:48.409Z,98436.41
2024-01-12T23:20:19.017Z,98431.52
2024-01-12T23:22:48.458Z,98428.23
2024-01-12T23:25:16.712Z,98424.84
2024-01-12T23:27:44.829Z,98422.14
2024-01-12T23:30:14.492Z,98420.02
2024-01-12T23:32:43.247Z,98418.20
2024-01-12T23:35:12.059Z,98416.36
2024-01-12T23:37:40.364Z,98413.25
2024-01-12T23:40:11.046Z,98405.36
2024-01-12T23:42:39.275Z,98404.81
2024-01-12T23:45:08.116Z,98396.23
2024-01-12T23:47:36.489Z,98391.19
2024-01-12T23:50:05.188Z,98391.10
2024-01-12T23:52:33.472Z,98390.20
2024-01-12T23:55:01.585Z,98388.77
2024-01-12T23:57:29.884Z,98387.84
2024-01-12T23:59:58.073Z,98382.84
